Time;durP1;ratioP1;P1;durP2;ratioP2;P2;SDS_P1;SDS_P2;PMS_P1;PMS_P2;Temp;Humidity;BMP_temperature;BMP_pressure;BME280_temperature;BME280_humidity;BME280_pressure;Samples;Min_cycle;Max_cycle;Signal;HPM_P1;HPM_P2
2023/04/20 00:01:03;;;;;;;;;;;12.10;69.70;;;;;;5098836;27;93056;-42
2023/04/20 00:03:31;;;;;;;;;;;12.00;69.60;;;;;;5098993;27;92153;-42
2023/04/20 00:06:00;;;;;;;;;;;12.10;69.70;;;;;;5095167;27;94326;-43
2023/04/20 00:08:25;;;;;;;;;;;12.00;69.60;;;;;;5098801;27;92218;-42
2023/04/20 00:10:50;;;;;;;;;;;12.00;69.70;;;;;;5102386;27;92194;-42
2023/04/20 00:13:16;;;;;;;;;;;12.00;69.70;;;;;;5098344;27;93250;-42
2023/04/20 00:15:41;;;;;;;;;;;12.00;69.70;;;;;;5098791;27;92177;-42
2023/04/20 00:18:07;;;;;;;;;;;12.00;69.70;;;;;;5098788;27;92940;-42
2023/04/20 00:20:33;;;;;;;;;;;12.00;69.70;;;;;;5098710;27;94692;-42
2023/04/20 00:22:59;;;;;;;;;;;12.00;69.60;;;;;;5099324;27;91481;-43
2023/04/20 00:25:25;;;;;;;;;;;12.00;70.30;;;;;;5099285;27;92186;-42
2023/04/20 00:27:50;;;;;;;;;;;12.00;69.60;;;;;;5098972;27;93068;-42
2023/04/20 00:30:16;;;;;;;;;;;12.00;69.60;;;;;;5098317;27;93177;-42
2023/04/20 00:32:41;;;;;;;;;;;12.00;69.60;;;;;;5100566;27;94948;-42
2023/04/20 00:35:07;;;;;;;;;;;12.00;69.60;;;;;;5098929;27;92085;-42
2023/04/20 00:37:32;;;;;;;;;;;12.00;69.60;;;;;;5099056;27;93998;-42
2023/04/20 00:39:58;;;;;;;;;;;12.00;69.70;;;;;;5098139;27;93911;-42
2023/04/20 00:42:23;;;;;;;;;;;12.00;69.70;;;;;;5098673;27;92158;-43
2023/04/20 00:44:49;;;;;;;;;;;12.00;69.60;;;;;;5098875;27;92578;-42
2023/04/20 00:47:15;;;;;;;;;;;12.00;69.70;;;;;;5098815;27;92749;-42
2023/04/20 00:49:41;;;;;;;;;;;11.90;69.60;;;;;;5094505;27;92313;-42
2023/04/20 00:52:07;;;;;;;;;;;11.90;69.70;;;;;;5099567;27;93745;-42
2023/04/20 00:54:33;;;;;;;;;;;11.90;69.60;;;;;;5104384;27;94234;-42
2023/04/20 00:56:58;;;;;;;;;;;11.90;69.60;;;;;;5102034;27;94800;-42
2023/04/20 00:59:24;;;;;;;;;;;11.90;69.70;;;;;;5101428;27;94389;-42
2023/04/20 01:01:50;;;;;;;;;;;11.90;69.70;;;;;;5101753;27;92215;-42
2023/04/20 01:04:15;;;;;;;;;;;11.90;69.70;;;;;;5101401;27;93829;-42
2023/04/20 01:06:41;;;;;;;;;;;11.90;69.70;;;;;;5101066;27;94574;-42
2023/04/20 01:09:07;;;;;;;;;;;11.90;69.80;;;;;;5101805;27;92242;-42
2023/04/20 01:14:16;;;;;;;;;;;11.90;69.70;;;;;;5096037;27;92326;-42
2023/04/20 01:16:43;;;;;;;;;;;11.90;69.70;;;;;;5104983;27;92728;-42
2023/04/20 01:19:09;;;;;;;;;;;11.90;69.70;;;;;;5100500;27;95386;-42
2023/04/20 01:21:35;;;;;;;;;;;11.90;69.70;;;;;;5101612;27;92174;-42
2023/04/20 01:24:00;;;;;;;;;;;11.90;69.70;;;;;;5101314;27;93854;-42
2023/04/20 01:26:26;;;;;;;;;;;11.90;69.70;;;;;;5101088;27;93108;-42
2023/04/20 01:28:51;;;;;;;;;;;11.90;69.70;;;;;;5101360;27;92060;-42
2023/04/20 01:31:17;;;;;;;;;;;11.80;69.70;;;;;;5101286;27;93785;-42
2023/04/20 01:33:42;;;;;;;;;;;11.80;69.60;;;;;;5100620;27;94427;-42
2023/04/20 01:36:08;;;;;;;;;;;11.80;69.70;;;;;;5102180;27;91452;-42
2023/04/20 01:38:34;;;;;;;;;;;11.90;69.80;;;;;;5103980;27;92297;-42
2023/04/20 01:41:00;;;;;;;;;;;11.80;69.70;;;;;;5097395;27;92152;-42
2023/04/20 01:43:26;;;;;;;;;;;11.90;69.80;;;;;;5100385;27;94126;-43
2023/04/20 01:45:51;;;;;;;;;;;11.80;69.70;;;;;;5100990;27;92981;-42
2023/04/20 01:48:17;;;;;;;;;;;11.80;69.70;;;;;;5101238;27;92293;-42
2023/04/20 01:50:42;;;;;;;;;;;11.80;69.80;;;;;;5101578;27;92422;-42
2023/04/20 01:53:08;;;;;;;;;;;11.80;69.80;;;;;;5100405;27;95057;-42
2023/04/20 01:55:33;;;;;;;;;;;11.80;69.90;;;;;;5100707;27;92697;-42
2023/04/20 01:57:59;;;;;;;;;;;11.80;69.80;;;;;;5097378;27;92844;-42
2023/04/20 02:00:24;;;;;;;;;;;11.80;69.80;;;;;;5104015;27;93550;-42
2023/04/20 02:02:50;;;;;;;;;;;11.70;69.80;;;;;;5100648;27;92073;-42
2023/04/20 02:05:16;;;;;;;;;;;11.70;69.80;;;;;;5097845;27;96489;-42
2023/04/20 02:07:41;;;;;;;;;;;11.70;69.80;;;;;;5099878;27;93129;-42
2023/04/20 02:10:07;;;;;;;;;;;11.70;69.80;;;;;;5100670;27;94817;-42
2023/04/20 02:12:32;;;;;;;;;;;11.70;69.90;;;;;;5100127;27;94407;-42
2023/04/20 02:14:58;;;;;;;;;;;11.70;69.90;;;;;;5100023;27;92527;-43
2023/04/20 02:17:23;;;;;;;;;;;11.70;69.90;;;;;;5101216;27;92655;-42
2023/04/20 02:19:49;;;;;;;;;;;11.70;69.90;;;;;;5103464;27;93318;-42
2023/04/20 02:22:14;;;;;;;;;;;11.70;69.90;;;;;;5100669;27;92167;-42
2023/04/20 02:24:42;;;;;;;;;;;11.70;69.80;;;;;;5100569;27;92820;-42
2023/04/20 02:27:08;;;;;;;;;;;11.70;69.90;;;;;;5096915;27;92159;-42
2023/04/20 02:29:34;;;;;;;;;;;11.70;69.90;;;;;;5100909;27;92626;-43
2023/04/20 02:32:00;;;;;;;;;;;11.70;69.90;;;;;;5098927;27;95369;-42
2023/04/20 02:34:25;;;;;;;;;;;11.70;70.00;;;;;;5101062;27;92047;-42
2023/04/20 02:36:50;;;;;;;;;;;11.70;69.90;;;;;;5100490;27;92676;-42
2023/04/20 02:39:16;;;;;;;;;;;11.60;70.00;;;;;;5099646;27;94559;-42
2023/04/20 02:41:42;;;;;;;;;;;11.60;70.00;;;;;;5103358;27;92519;-42
2023/04/20 02:44:07;;;;;;;;;;;11.60;69.90;;;;;;5099441;27;94515;-42
2023/04/20 02:46:33;;;;;;;;;;;11.60;70.60;;;;;;5100325;27;92436;-42
2023/04/20 02:48:59;;;;;;;;;;;11.60;70.00;;;;;;5100956;27;94017;-42
2023/04/20 02:51:25;;;;;;;;;;;11.60;70.00;;;;;;5099845;27;93015;-42
2023/04/20 02:53:50;;;;;;;;;;;11.60;70.00;;;;;;5100445;27;92210;-42
2023/04/20 02:56:16;;;;;;;;;;;11.60;70.00;;;;;;5099582;27;93429;-42
2023/04/20 02:58:41;;;;;;;;;;;11.60;70.00;;;;;;5099646;27;92983;-42
2023/04/20 03:01:07;;;;;;;;;;;11.60;70.00;;;;;;5100002;27;92241;-42
2023/04/20 03:03:32;;;;;;;;;;;11.60;70.00;;;;;;5102225;27;93963;-42
2023/04/20 03:05:58;;;;;;;;;;;11.60;70.00;;;;;;5100287;27;92519;-42
2023/04/20 03:08:23;;;;;;;;;;;11.60;70.00;;;;;;5098682;27;95446;-42
2023/04/20 03:10:49;;;;;;;;;;;11.60;70.10;;;;;;5099437;27;94541;-42
2023/04/20 03:13:14;;;;;;;;;;;11.60;70.10;;;;;;5100728;27;91720;-42
2023/04/20 03:15:40;;;;;;;;;;;11.60;70.10;;;;;;5099965;27;92194;-42
2023/04/20 03:18:05;;;;;;;;;;;11.60;70.10;;;;;;5099648;27;92221;-42
2023/04/20 03:20:31;;;;;;;;;;;11.60;70.00;;;;;;5099376;27;93133;-42
2023/04/20 03:22:56;;;;;;;;;;;11.60;70.10;;;;;;5099337;27;94921;-42
2023/04/20 03:25:22;;;;;;;;;;;11.60;70.10;;;;;;5101999;27;94610;-42
2023/04/20 03:27:48;;;;;;;;;;;11.50;70.10;;;;;;5099614;27;94460;-42
2023/04/20 03:30:13;;;;;;;;;;;11.50;70.10;;;;;;5098896;27;94488;-42
2023/04/20 03:32:39;;;;;;;;;;;11.50;70.10;;;;;;5099311;27;92194;-42
2023/04/20 03:35:05;;;;;;;;;;;11.50;70.10;;;;;;5099204;27;93912;-42
2023/04/20 03:37:30;;;;;;;;;;;11.50;70.10;;;;;;5099298;27;93783;-42
2023/04/20 03:39:56;;;;;;;;;;;11.50;70.70;;;;;;5099517;27;92189;-43
2023/04/20 03:42:22;;;;;;;;;;;11.50;70.10;;;;;;5098981;27;93826;-42
2023/04/20 03:44:47;;;;;;;;;;;11.50;70.10;;;;;;5094366;27;94067;-42
2023/04/20 03:47:13;;;;;;;;;;;11.50;70.10;;;;;;5102107;27;92171;-42
2023/04/20 03:49:38;;;;;;;;;;;11.50;70.10;;;;;;5098716;27;94861;-42
2023/04/20 03:52:04;;;;;;;;;;;11.50;70.10;;;;;;5099192;27;92215;-42
2023/04/20 03:54:30;;;;;;;;;;;11.50;70.10;;;;;;5099194;27;93832;-42
2023/04/20 03:56:55;;;;;;;;;;;11.50;70.10;;;;;;5098340;27;94549;-42
2023/04/20 03:59:21;;;;;;;;;;;11.50;70.10;;;;;;5098959;27;92307;-42
2023/04/20 04:01:46;;;;;;;;;;;11.50;70.10;;;;;;5099365;27;93749;-43
2023/04/20 04:04:12;;;;;;;;;;;11.50;70.10;;;;;;5098765;27;93439;-42
2023/04/20 04:06:37;;;;;;;;;;;11.50;70.10;;;;;;5099170;27;92178;-42
2023/04/20 04:09:03;;;;;;;;;;;11.50;70.10;;;;;;5101108;27;94090;-42
2023/04/20 04:11:29;;;;;;;;;;;11.40;70.10;;;;;;5098654;27;92142;-42
2023/04/20 04:13:55;;;;;;;;;;;11.40;70.10;;;;;;5098146;27;94178;-42
2023/04/20 04:16:20;;;;;;;;;;;11.40;70.10;;;;;;5098685;27;94505;-43
2023/04/20 04:18:46;;;;;;;;;;;11.40;70.20;;;;;;5098514;27;92122;-42
2023/04/20 04:21:11;;;;;;;;;;;11.40;70.30;;;;;;5099294;27;92231;-42
2023/04/20 04:23:37;;;;;;;;;;;11.40;70.20;;;;;;5097814;27;94528;-42
2023/04/20 04:26:03;;;;;;;;;;;11.40;70.20;;;;;;5099581;27;91429;-42
2023/04/20 04:28:30;;;;;;;;;;;11.40;70.20;;;;;;5104154;27;93285;-42
2023/04/20 04:30:56;;;;;;;;;;;11.40;70.30;;;;;;5098384;27;92198;-42
2023/04/20 04:33:22;;;;;;;;;;;11.40;70.30;;;;;;5101721;27;93959;-42
2023/04/20 04:35:48;;;;;;;;;;;11.40;70.20;;;;;;5101513;27;93724;-42
2023/04/20 04:38:13;;;;;;;;;;;11.40;70.30;;;;;;5102307;27;92646;-42
2023/04/20 04:40:40;;;;;;;;;;;11.40;70.20;;;;;;5102488;27;92293;-42
2023/04/20 04:43:09;;;;;;;;;;;11.40;70.10;;;;;;5101736;27;94606;-42
2023/04/20 04:45:39;;;;;;;;;;;11.40;70.10;;;;;;5102100;27;92491;-42
2023/04/20 04:48:05;;;;;;;;;;;11.40;70.30;;;;;;5101997;27;93900;-42
2023/04/20 04:50:31;;;;;;;;;;;11.40;70.20;;;;;;5103550;27;93307;-42
2023/04/20 04:52:56;;;;;;;;;;;11.40;70.30;;;;;;5101678;27;93078;-42
2023/04/20 04:55:22;;;;;;;;;;;11.40;70.10;;;;;;5101464;27;92889;-42
2023/04/20 04:57:47;;;;;;;;;;;11.40;70.20;;;;;;5101725;27;92979;-42
2023/04/20 05:00:14;;;;;;;;;;;11.40;70.10;;;;;;5101643;27;93874;-42
2023/04/20 05:02:40;;;;;;;;;;;11.30;70.20;;;;;;5101378;27;95611;-43
2023/04/20 05:05:06;;;;;;;;;;;11.40;70.30;;;;;;5101976;27;92141;-43
2023/04/20 05:07:32;;;;;;;;;;;11.40;70.30;;;;;;5102185;27;93870;-42
2023/04/20 05:09:58;;;;;;;;;;;11.30;70.30;;;;;;5100998;27;94531;-42
2023/04/20 05:12:24;;;;;;;;;;;11.40;70.20;;;;;;5104866;27;92192;-42
2023/04/20 05:14:50;;;;;;;;;;;11.30;70.20;;;;;;5100444;27;93503;-42
2023/04/20 05:17:16;;;;;;;;;;;11.30;70.20;;;;;;5101383;27;92158;-43
2023/04/20 05:19:42;;;;;;;;;;;11.30;70.90;;;;;;5101471;27;93547;-42
2023/04/20 05:22:07;;;;;;;;;;;11.30;70.40;;;;;;5100148;27;95486;-42
2023/04/20 05:24:33;;;;;;;;;;;11.30;70.40;;;;;;5100902;27;92564;-42
2023/04/20 05:26:58;;;;;;;;;;;11.30;70.30;;;;;;5101532;27;92692;-42
2023/04/20 05:29:24;;;;;;;;;;;11.30;70.20;;;;;;5100716;27;94603;-42
2023/04/20 05:31:49;;;;;;;;;;;11.30;70.30;;;;;;5101641;27;92199;-42
2023/04/20 05:34:15;;;;;;;;;;;11.30;70.30;;;;;;5104034;27;92663;-42
2023/04/20 05:36:40;;;;;;;;;;;11.30;70.40;;;;;;5101040;27;92139;-42
2023/04/20 05:39:06;;;;;;;;;;;11.30;70.40;;;;;;5100531;27;94135;-42
2023/04/20 05:41:31;;;;;;;;;;;11.30;70.30;;;;;;5100767;27;92163;-43
2023/04/20 05:43:57;;;;;;;;;;;11.30;70.40;;;;;;5100867;27;92784;-42
2023/04/20 05:46:22;;;;;;;;;;;11.30;70.30;;;;;;5099931;27;93824;-43
2023/04/20 05:48:48;;;;;;;;;;;11.30;70.40;;;;;;5100445;27;92208;-42
2023/04/20 05:51:13;;;;;;;;;;;11.30;70.40;;;;;;5101005;27;92227;-42
2023/04/20 05:53:39;;;;;;;;;;;11.30;70.40;;;;;;5101039;27;93944;-42
2023/04/20 05:56:05;;;;;;;;;;;11.20;70.40;;;;;;5103615;27;94478;-42
2023/04/20 05:58:32;;;;;;;;;;;11.20;70.30;;;;;;5101068;27;93710;-42
2023/04/20 06:00:57;;;;;;;;;;;11.30;70.40;;;;;;5100537;27;92968;-43
2023/04/20 06:03:23;;;;;;;;;;;11.20;70.30;;;;;;5101061;27;91429;-42
2023/04/20 06:05:48;;;;;;;;;;;11.30;70.40;;;;;;5100723;27;93598;-43
2023/04/20 06:08:14;;;;;;;;;;;11.30;70.30;;;;;;5100446;27;93082;-42
2023/04/20 06:10:39;;;;;;;;;;;11.20;70.40;;;;;;5099992;27;93197;-43
2023/04/20 06:13:05;;;;;;;;;;;11.20;70.30;;;;;;5101251;27;93363;-42
2023/04/20 06:15:30;;;;;;;;;;;11.20;70.40;;;;;;5099866;27;93198;-43
2023/04/20 06:17:56;;;;;;;;;;;11.20;70.30;;;;;;5103548;27;92035;-42
2023/04/20 06:20:21;;;;;;;;;;;11.20;70.40;;;;;;5100068;27;94420;-42
2023/04/20 06:22:47;;;;;;;;;;;11.20;70.50;;;;;;5100535;27;92020;-42
2023/04/20 06:25:14;;;;;;;;;;;11.20;70.30;;;;;;5100737;27;93965;-42
2023/04/20 06:27:40;;;;;;;;;;;11.20;70.30;;;;;;5096895;27;93761;-42
2023/04/20 06:30:06;;;;;;;;;;;11.20;70.40;;;;;;5099991;27;92585;-42
2023/04/20 06:32:31;;;;;;;;;;;11.20;70.40;;;;;;5100472;27;92464;-42
2023/04/20 06:34:57;;;;;;;;;;;11.20;70.30;;;;;;5099011;27;95792;-42
2023/04/20 06:37:22;;;;;;;;;;;11.20;70.40;;;;;;5103425;27;92166;-42
2023/04/20 06:39:52;;;;;;;;;;;11.20;70.40;;;;;;5100014;27;94742;-42
2023/04/20 06:42:17;;;;;;;;;;;11.20;70.40;;;;;;5096726;27;92765;-42
2023/04/20 06:44:43;;;;;;;;;;;11.20;70.40;;;;;;5100302;27;93841;-42
2023/04/20 06:47:08;;;;;;;;;;;11.20;70.40;;;;;;5099582;27;95003;-42
2023/04/20 06:49:35;;;;;;;;;;;11.20;70.30;;;;;;5099881;27;92420;-42
2023/04/20 06:52:01;;;;;;;;;;;11.20;70.40;;;;;;5100522;27;94107;-42
2023/04/20 06:54:26;;;;;;;;;;;11.20;70.40;;;;;;5099660;27;94170;-42
2023/04/20 06:56:52;;;;;;;;;;;11.20;70.40;;;;;;5100290;27;92555;-42
2023/04/20 06:59:18;;;;;;;;;;;11.20;70.40;;;;;;5102465;27;92991;-42
2023/04/20 07:01:43;;;;;;;;;;;11.20;70.50;;;;;;5099608;27;92150;-42
2023/04/20 07:04:09;;;;;;;;;;;11.20;70.40;;;;;;5099815;27;92598;-42
2023/04/20 07:06:35;;;;;;;;;;;11.20;70.50;;;;;;5099169;27;94695;-43
2023/04/20 07:09:00;;;;;;;;;;;11.10;70.50;;;;;;5099464;27;92186;-42
2023/04/20 07:11:26;;;;;;;;;;;11.10;70.50;;;;;;5095637;27;92075;-42
2023/04/20 07:13:51;;;;;;;;;;;11.10;70.50;;;;;;5098503;27;94664;-42
2023/04/20 07:16:17;;;;;;;;;;;11.20;70.50;;;;;;5099527;27;91779;-42
2023/04/20 07:18:42;;;;;;;;;;;11.10;70.60;;;;;;5099506;27;92774;-42
2023/04/20 07:21:08;;;;;;;;;;;11.10;70.50;;;;;;5101580;27;94574;-43
2023/04/20 07:23:33;;;;;;;;;;;11.10;70.70;;;;;;5098758;27;94282;-42
2023/04/20 07:25:59;;;;;;;;;;;11.20;70.60;;;;;;5094694;27;94614;-43
2023/04/20 07:28:24;;;;;;;;;;;11.10;70.50;;;;;;5099553;27;92176;-42
2023/04/20 07:30:50;;;;;;;;;;;11.10;70.50;;;;;;5099280;27;93721;-42
2023/04/20 07:33:16;;;;;;;;;;;11.10;70.50;;;;;;5098502;27;94367;-42
2023/04/20 07:35:41;;;;;;;;;;;11.10;70.50;;;;;;5099376;27;92102;-42
2023/04/20 07:38:06;;;;;;;;;;;11.10;70.50;;;;;;5099864;27;93639;-42
2023/04/20 07:40:32;;;;;;;;;;;11.10;70.50;;;;;;5099808;27;92506;-43
2023/04/20 07:42:58;;;;;;;;;;;11.10;70.50;;;;;;5099169;27;92193;-43
2023/04/20 07:45:23;;;;;;;;;;;11.10;70.60;;;;;;5098776;27;93625;-42
2023/04/20 07:47:51;;;;;;;;;;;11.10;70.50;;;;;;5098264;27;93129;-42
2023/04/20 07:50:16;;;;;;;;;;;11.10;70.50;;;;;;5099314;27;94701;-42
2023/04/20 07:52:43;;;;;;;;;;;11.10;70.60;;;;;;5098934;27;95238;-42
2023/04/20 07:55:10;;;;;;;;;;;11.10;71.10;;;;;;5099209;27;92882;-42
2023/04/20 07:57:36;;;;;;;;;;;11.10;70.60;;;;;;5099529;27;94258;-42
2023/04/20 08:00:04;;;;;;;;;;;11.10;70.60;;;;;;5098268;27;94498;-42
2023/04/20 08:02:30;;;;;;;;;;;11.10;70.60;;;;;;5100190;27;92104;-42
2023/04/20 08:04:56;;;;;;;;;;;11.10;70.50;;;;;;5105544;27;94302;-42
2023/04/20 08:07:22;;;;;;;;;;;11.10;70.60;;;;;;5102644;27;92236;-42
2023/04/20 08:10:07;;;;;;;;;;;11.10;70.60;;;;;;5098733;27;93804;-43
2023/04/20 08:12:32;;;;;;;;;;;11.10;70.60;;;;;;5101131;27;95636;-42
2023/04/20 08:15:00;;;;;;;;;;;11.10;70.60;;;;;;5101979;27;92201;-42
2023/04/20 08:17:26;;;;;;;;;;;11.10;70.60;;;;;;5102394;27;93846;-42
2023/04/20 08:19:52;;;;;;;;;;;11.10;70.50;;;;;;5102139;27;94455;-42
2023/04/20 08:22:17;;;;;;;;;;;11.10;70.50;;;;;;5102434;27;92439;-42
2023/04/20 08:24:43;;;;;;;;;;;11.10;70.50;;;;;;5105181;27;93748;-42
2023/04/20 08:27:09;;;;;;;;;;;11.10;70.60;;;;;;5102343;27;92213;-42
2023/04/20 08:29:34;;;;;;;;;;;11.10;70.60;;;;;;5099003;27;93968;-42
2023/04/20 08:32:00;;;;;;;;;;;11.10;70.60;;;;;;5101437;27;94786;-41
2023/04/20 08:34:25;;;;;;;;;;;11.10;70.60;;;;;;5102299;27;92126;-42
2023/04/20 08:36:51;;;;;;;;;;;11.10;70.60;;;;;;5101895;27;93986;-42
2023/04/20 08:39:21;;;;;;;;;;;11.10;70.60;;;;;;5101725;27;93816;-42
2023/04/20 08:41:46;;;;;;;;;;;11.10;70.60;;;;;;5102164;27;92195;-42
2023/04/20 08:44:12;;;;;;;;;;;11.10;70.60;;;;;;5098136;27;93593;-42
2023/04/20 08:46:39;;;;;;;;;;;11.10;70.70;;;;;;5104804;27;93108;-42
2023/04/20 08:49:04;;;;;;;;;;;11.10;70.60;;;;;;5101880;27;93346;-42
2023/04/20 08:51:31;;;;;;;;;;;11.10;70.60;;;;;;5101926;27;93142;-42
2023/04/20 08:54:06;;;;;;;;;;;11.10;70.60;;;;;;5102693;27;91448;-42
2023/04/20 08:56:35;;;;;;;;;;;11.10;70.70;;;;;;5094949;27;93108;-42
2023/04/20 08:59:02;;;;;;;;;;;11.10;70.60;;;;;;5101270;27;94481;-42
2023/04/20 09:01:28;;;;;;;;;;;11.10;70.60;;;;;;5101407;27;93105;-42
2023/04/20 09:03:53;;;;;;;;;;;11.10;70.60;;;;;;5101637;27;94663;-42
2023/04/20 09:06:19;;;;;;;;;;;11.10;70.60;;;;;;5101537;27;93983;-42
2023/04/20 09:08:45;;;;;;;;;;;11.10;70.60;;;;;;5105059;27;92160;-42
2023/04/20 09:11:24;;;;;;;;;;;11.10;70.70;;;;;;5101376;27;94302;-42
2023/04/20 09:13:58;;;;;;;;;;;11.10;70.70;;;;;;5097286;27;92124;-42
2023/04/20 09:16:24;;;;;;;;;;;11.10;70.70;;;;;;5102181;27;92340;-42
2023/04/20 09:18:54;;;;;;;;;;;11.10;70.70;;;;;;5101746;27;93853;-42
2023/04/20 09:21:20;;;;;;;;;;;11.10;70.60;;;;;;5101584;27;92254;-42
2023/04/20 09:23:55;;;;;;;;;;;11.10;70.60;;;;;;5101239;27;93710;-42
2023/04/20 09:26:21;;;;;;;;;;;11.10;70.60;;;;;;5100421;27;95486;-42
2023/04/20 09:28:47;;;;;;;;;;;11.10;70.60;;;;;;5101409;27;92127;-42
2023/04/20 09:31:30;;;;;;;;;;;11.10;70.50;;;;;;5104074;27;93772;-42
2023/04/20 09:33:56;;;;;;;;;;;11.10;70.60;;;;;;5101227;27;92756;-42
2023/04/20 09:36:21;;;;;;;;;;;11.10;70.70;;;;;;5101415;27;94004;-42
2023/04/20 09:38:47;;;;;;;;;;;11.10;70.70;;;;;;5101176;27;93605;-42
2023/04/20 09:41:14;;;;;;;;;;;11.10;70.60;;;;;;5101176;27;92455;-42
2023/04/20 09:43:40;;;;;;;;;;;11.10;70.60;;;;;;5101709;27;93360;-42
2023/04/20 09:46:06;;;;;;;;;;;11.10;70.60;;;;;;5100417;27;94771;-42
2023/04/20 09:48:33;;;;;;;;;;;11.10;70.60;;;;;;5096905;27;92819;-42
2023/04/20 09:51:00;;;;;;;;;;;11.10;70.60;;;;;;5100274;27;92994;-43
2023/04/20 09:53:26;;;;;;;;;;;11.10;70.50;;;;;;5104023;27;94413;-42
2023/04/20 09:55:51;;;;;;;;;;;11.20;70.50;;;;;;5101152;27;93914;-42
2023/04/20 09:58:18;;;;;;;;;;;11.20;70.40;;;;;;5100460;27;94073;-42
2023/04/20 10:00:43;;;;;;;;;;;11.20;70.40;;;;;;5100588;27;92193;-42
2023/04/20 10:03:09;;;;;;;;;;;11.20;70.30;;;;;;5100749;27;94514;-42
2023/04/20 10:05:35;;;;;;;;;;;11.20;70.50;;;;;;5099893;27;94691;-42
2023/04/20 10:08:02;;;;;;;;;;;11.20;70.50;;;;;;5097267;27;91586;-42
2023/04/20 10:10:28;;;;;;;;;;;11.20;70.50;;;;;;5100729;27;92053;-42
2023/04/20 10:12:54;;;;;;;;;;;11.10;70.50;;;;;;5100298;27;94194;-42
2023/04/20 10:15:20;;;;;;;;;;;11.10;70.50;;;;;;5102742;27;93099;-42
2023/04/20 10:17:46;;;;;;;;;;;11.10;70.60;;;;;;5100134;27;93786;-42
2023/04/20 10:20:22;;;;;;;;;;;11.20;70.70;;;;;;5099780;27;92747;-43
2023/04/20 10:22:49;;;;;;;;;;;11.10;70.80;;;;;;5098625;27;93839;-42
2023/04/20 10:25:16;;;;;;;;;;;11.10;70.80;;;;;;5099312;27;94565;-42
2023/04/20 10:27:54;;;;;;;;;;;11.10;70.80;;;;;;5100249;27;92215;-42
2023/04/20 10:30:20;;;;;;;;;;;11.10;70.80;;;;;;5100756;27;92210;-42
2023/04/20 10:32:46;;;;;;;;;;;11.20;70.90;;;;;;5099696;27;93387;-42
2023/04/20 10:35:13;;;;;;;;;;;11.10;70.80;;;;;;5103356;27;92677;-42
2023/04/20 10:37:48;;;;;;;;;;;11.10;70.90;;;;;;5099929;27;93027;-42
2023/04/20 10:40:14;;;;;;;;;;;11.20;71.00;;;;;;5099678;27;93307;-42
2023/04/20 10:42:41;;;;;;;;;;;11.10;70.90;;;;;;5100278;27;94855;-42
2023/04/20 10:45:06;;;;;;;;;;;11.20;70.90;;;;;;5099473;27;94553;-42
2023/04/20 10:47:35;;;;;;;;;;;11.20;71.10;;;;;;5100022;27;92205;-42
2023/04/20 10:50:06;;;;;;;;;;;11.10;71.10;;;;;;5100214;27;93794;-42
2023/04/20 10:52:38;;;;;;;;;;;11.10;71.00;;;;;;5099530;27;94582;-42
2023/04/20 10:55:05;;;;;;;;;;;11.10;71.10;;;;;;5096600;27;92135;-42
2023/04/20 10:57:31;;;;;;;;;;;11.10;71.10;;;;;;5103275;27;93945;-42
2023/04/20 10:59:57;;;;;;;;;;;11.10;71.10;;;;;;5100066;27;92228;-42
2023/04/20 11:02:22;;;;;;;;;;;11.10;71.10;;;;;;5099979;27;94138;-42
2023/04/20 11:04:48;;;;;;;;;;;11.10;71.20;;;;;;5098522;27;95587;-42
2023/04/20 11:07:13;;;;;;;;;;;11.10;71.20;;;;;;5099612;27;92614;-42
2023/04/20 11:09:41;;;;;;;;;;;11.10;71.30;;;;;;5099712;27;93608;-42
2023/04/20 11:12:08;;;;;;;;;;;11.10;71.30;;;;;;5099150;27;94547;-42
2023/04/20 11:14:36;;;;;;;;;;;11.10;71.30;;;;;;5099108;27;92203;-42
2023/04/20 11:17:01;;;;;;;;;;;11.10;71.40;;;;;;5099529;27;94155;-42
2023/04/20 11:19:28;;;;;;;;;;;11.10;71.40;;;;;;5102688;27;92272;-42
2023/04/20 11:21:53;;;;;;;;;;;11.10;71.40;;;;;;5100394;27;91863;-42
2023/04/20 11:24:23;;;;;;;;;;;11.10;71.40;;;;;;5098900;27;94706;-42
2023/04/20 11:26:49;;;;;;;;;;;11.10;71.30;;;;;;5099708;27;92148;-42
2023/04/20 11:29:26;;;;;;;;;;;11.10;71.30;;;;;;5098744;27;93613;-42
2023/04/20 11:31:52;;;;;;;;;;;11.10;71.30;;;;;;5096080;27;94648;-42
2023/04/20 11:34:18;;;;;;;;;;;11.20;71.40;;;;;;5099388;27;92115;-42
2023/04/20 11:36:45;;;;;;;;;;;11.20;71.30;;;;;;5097862;27;93621;-42
2023/04/20 11:39:12;;;;;;;;;;;11.20;71.20;;;;;;5098875;27;94182;-42
2023/04/20 11:41:38;;;;;;;;;;;11.20;71.20;;;;;;5098497;27;92229;-42
2023/04/20 11:44:04;;;;;;;;;;;11.20;71.20;;;;;;5098769;27;94752;-42
2023/04/20 11:46:33;;;;;;;;;;;11.20;71.30;;;;;;5099913;27;91378;-42
2023/04/20 11:48:59;;;;;;;;;;;11.20;71.30;;;;;;5099340;27;93614;-43
2023/04/20 11:51:26;;;;;;;;;;;11.20;71.30;;;;;;5098756;27;94639;-42
2023/04/20 11:53:51;;;;;;;;;;;11.30;71.30;;;;;;5094784;27;92897;-42
2023/04/20 11:56:17;;;;;;;;;;;11.30;71.20;;;;;;5099220;27;94896;-42
2023/04/20 11:58:42;;;;;;;;;;;11.30;71.20;;;;;;5098643;27;94663;-42
2023/04/20 12:01:08;;;;;;;;;;;11.30;71.20;;;;;;5099332;27;92218;-43
2023/04/20 12:03:33;;;;;;;;;;;11.30;71.20;;;;;;5101820;27;93876;-42
2023/04/20 12:05:59;;;;;;;;;;;11.30;71.20;;;;;;5097549;27;92221;-42
2023/04/20 12:08:25;;;;;;;;;;;11.30;71.20;;;;;;5098862;27;94026;-42
2023/04/20 12:10:50;;;;;;;;;;;11.30;71.20;;;;;;5098357;27;93860;-42
2023/04/20 12:13:16;;;;;;;;;;;11.30;71.40;;;;;;5099130;27;92164;-42
2023/04/20 12:15:41;;;;;;;;;;;11.30;71.20;;;;;;5098538;27;94143;-42
2023/04/20 12:18:07;;;;;;;;;;;11.30;71.20;;;;;;5097607;27;95442;-42
2023/04/20 12:20:32;;;;;;;;;;;11.30;71.10;;;;;;5099246;27;92189;-42
2023/04/20 12:22:58;;;;;;;;;;;11.30;71.60;;;;;;5098850;27;94157;-42
2023/04/20 12:25:23;;;;;;;;;;;11.30;71.40;;;;;;5097644;27;92890;-42
2023/04/20 12:27:49;;;;;;;;;;;11.30;71.60;;;;;;5098471;27;93434;-42
2023/04/20 12:30:15;;;;;;;;;;;11.30;71.60;;;;;;5098118;27;94206;-42
2023/04/20 12:32:41;;;;;;;;;;;11.30;71.60;;;;;;5098920;27;92917;-42
2023/04/20 12:35:07;;;;;;;;;;;11.30;71.50;;;;;;5098931;27;93754;-42
2023/04/20 12:37:32;;;;;;;;;;;11.30;71.60;;;;;;5098282;27;94827;-42
2023/04/20 12:39:58;;;;;;;;;;;11.30;71.50;;;;;;5098615;27;92391;-42
2023/04/20 12:42:23;;;;;;;;;;;11.30;71.50;;;;;;5098006;27;93060;-42
2023/04/20 12:44:51;;;;;;;;;;;11.30;71.60;;;;;;5101174;27;93657;-42
2023/04/20 12:47:16;;;;;;;;;;;11.40;71.60;;;;;;5099223;27;92467;-42
2023/04/20 12:49:42;;;;;;;;;;;11.40;71.60;;;;;;5101425;27;94821;-42
2023/04/20 12:52:07;;;;;;;;;;;11.40;71.50;;;;;;5102133;27;92183;-42
2023/04/20 12:54:33;;;;;;;;;;;11.40;71.40;;;;;;5102382;27;94123;-42
2023/04/20 12:56:58;;;;;;;;;;;11.40;71.50;;;;;;5101643;27;93163;-42
2023/04/20 12:59:24;;;;;;;;;;;11.50;71.40;;;;;;5102846;27;91511;-42
2023/04/20 13:01:49;;;;;;;;;;;11.40;71.60;;;;;;5101730;27;92731;-42
2023/04/20 13:04:15;;;;;;;;;;;11.40;71.70;;;;;;5101089;27;94473;-42
2023/04/20 13:06:41;;;;;;;;;;;11.40;71.70;;;;;;5104636;27;93056;-42
2023/04/20 13:09:06;;;;;;;;;;;11.40;71.70;;;;;;5101231;27;94435;-42
2023/04/20 13:11:32;;;;;;;;;;;11.40;71.80;;;;;;5101312;27;92139;-42
2023/04/20 13:13:57;;;;;;;;;;;11.50;71.70;;;;;;5101322;27;93811;-42
2023/04/20 13:16:23;;;;;;;;;;;11.40;71.80;;;;;;5101013;27;94167;-42
2023/04/20 13:18:49;;;;;;;;;;;11.40;71.70;;;;;;5102002;27;92107;-42
2023/04/20 13:21:14;;;;;;;;;;;11.40;71.90;;;;;;5101442;27;93685;-42
2023/04/20 13:23:40;;;;;;;;;;;11.30;72.00;;;;;;5101466;27;92147;-42
2023/04/20 13:26:06;;;;;;;;;;;11.40;71.90;;;;;;5101487;27;92203;-42
2023/04/20 13:28:31;;;;;;;;;;;11.40;72.00;;;;;;5103965;27;94055;-43
2023/04/20 13:30:57;;;;;;;;;;;11.50;71.80;;;;;;5100739;27;93525;-42
2023/04/20 13:33:23;;;;;;;;;;;11.40;71.80;;;;;;5101032;27;94880;-42
2023/04/20 13:35:48;;;;;;;;;;;11.40;71.80;;;;;;5101071;27;93063;-42
2023/04/20 13:38:14;;;;;;;;;;;11.50;71.60;;;;;;5101278;27;92076;-42
2023/04/20 13:40:39;;;;;;;;;;;11.50;71.60;;;;;;5101320;27;94070;-42
2023/04/20 13:43:05;;;;;;;;;;;11.60;71.60;;;;;;5100318;27;94678;-42
2023/04/20 13:45:30;;;;;;;;;;;11.60;71.50;;;;;;5101097;27;93093;-42
2023/04/20 13:47:56;;;;;;;;;;;11.50;71.60;;;;;;5101599;27;93683;-42
2023/04/20 13:50:21;;;;;;;;;;;11.50;71.70;;;;;;5103501;27;94185;-42
2023/04/20 13:52:47;;;;;;;;;;;11.60;71.60;;;;;;5101004;27;93833;-42
2023/04/20 13:55:13;;;;;;;;;;;11.50;71.70;;;;;;5099857;27;94072;-42
2023/04/20 13:57:38;;;;;;;;;;;11.50;71.90;;;;;;5100931;27;92473;-42
2023/04/20 14:00:04;;;;;;;;;;;11.50;71.80;;;;;;5099946;27;93805;-43
2023/04/20 14:02:31;;;;;;;;;;;11.50;71.70;;;;;;5100468;27;93409;-42
2023/04/20 14:04:57;;;;;;;;;;;11.50;71.70;;;;;;5100668;27;92181;-42
2023/04/20 14:07:22;;;;;;;;;;;11.50;71.70;;;;;;5101242;27;94197;-42
2023/04/20 14:09:48;;;;;;;;;;;11.50;71.70;;;;;;5100478;27;94173;-42
2023/04/20 14:12:13;;;;;;;;;;;11.60;71.90;;;;;;5104056;27;92236;-42